sensor_id;sensor_type;location;lat;lon;timestamp;P1;durP1;ratioP1;P2;durP2;ratioP2
32637;SDS011;19045;52.268;10.506;2023-02-13T00:00:33;27.08;;;14.13;;
32637;SDS011;19045;52.268;10.506;2023-02-13T00:03:00;24.27;;;13.23;;
32637;SDS011;19045;52.268;10.506;2023-02-13T00:05:27;22.35;;;13.13;;
32637;SDS011;19045;52.268;10.506;2023-02-13T00:07:55;22.35;;;13.68;;
32637;SDS011;19045;52.268;10.506;2023-02-13T00:10:22;25.55;;;13.88;;
32637;SDS011;19045;52.268;10.506;2023-02-13T00:12:48;23.35;;;13.77;;
32637;SDS011;19045;52.268;10.506;2023-02-13T00:15:15;23.48;;;13.63;;
32637;SDS011;19045;52.268;10.506;2023-02-13T00:17:42;24.85;;;13.20;;
32637;SDS011;19045;52.268;10.506;2023-02-13T00:20:09;20.15;;;12.82;;
32637;SDS011;19045;52.268;10.506;2023-02-13T00:22:36;24.00;;;13.25;;
32637;SDS011;19045;52.268;10.506;2023-02-13T00:25:06;24.90;;;13.35;;
32637;SDS011;19045;52.268;10.506;2023-02-13T00:27:33;22.30;;;13.10;;
32637;SDS011;19045;52.268;10.506;2023-02-13T00:30:00;21.55;;;13.50;;
32637;SDS011;19045;52.268;10.506;2023-02-13T00:32:26;21.95;;;12.82;;
32637;SDS011;19045;52.268;10.506;2023-02-13T00:34:53;21.02;;;11.98;;
32637;SDS011;19045;52.268;10.506;2023-02-13T00:37:20;20.63;;;12.43;;
32637;SDS011;19045;52.268;10.506;2023-02-13T00:39:47;23.63;;;13.90;;
32637;SDS011;19045;52.268;10.506;2023-02-13T00:42:15;26.38;;;14.05;;
32637;SDS011;19045;52.268;10.506;2023-02-13T00:44:41;21.77;;;12.75;;
32637;SDS011;19045;52.268;10.506;2023-02-13T00:47:08;22.15;;;13.32;;
32637;SDS011;19045;52.268;10.506;2023-02-13T00:49:38;22.95;;;13.18;;
32637;SDS011;19045;52.268;10.506;2023-02-13T00:52:05;21.38;;;12.52;;
32637;SDS011;19045;52.268;10.506;2023-02-13T00:54:31;21.67;;;12.13;;
32637;SDS011;19045;52.268;10.506;2023-02-13T00:56:58;24.00;;;13.88;;
32637;SDS011;19045;52.268;10.506;2023-02-13T00:59:26;24.20;;;12.18;;
32637;SDS011;19045;52.268;10.506;2023-02-13T01:01:53;24.83;;;13.13;;
32637;SDS011;19045;52.268;10.506;2023-02-13T01:04:19;24.88;;;12.70;;
32637;SDS011;19045;52.268;10.506;2023-02-13T01:06:46;24.95;;;13.90;;
32637;SDS011;19045;52.268;10.506;2023-02-13T01:09:12;23.67;;;13.55;;
32637;SDS011;19045;52.268;10.506;2023-02-13T01:11:39;21.30;;;12.88;;
32637;SDS011;19045;52.268;10.506;2023-02-13T01:14:05;21.45;;;12.80;;
32637;SDS011;19045;52.268;10.506;2023-02-13T01:16:33;20.60;;;12.75;;
32637;SDS011;19045;52.268;10.506;2023-02-13T01:19:00;24.17;;;13.07;;
32637;SDS011;19045;52.268;10.506;2023-02-13T01:21:27;20.30;;;12.85;;
32637;SDS011;19045;52.268;10.506;2023-02-13T01:23:53;22.80;;;14.23;;
32637;SDS011;19045;52.268;10.506;2023-02-13T01:26:20;21.15;;;12.38;;
32637;SDS011;19045;52.268;10.506;2023-02-13T01:28:50;27.60;;;13.63;;
32637;SDS011;19045;52.268;10.506;2023-02-13T01:31:18;20.95;;;13.40;;
32637;SDS011;19045;52.268;10.506;2023-02-13T01:33:46;20.17;;;12.75;;
32637;SDS011;19045;52.268;10.506;2023-02-13T01:36:13;20.95;;;13.40;;
32637;SDS011;19045;52.268;10.506;2023-02-13T01:38:40;22.42;;;12.68;;
32637;SDS011;19045;52.268;10.506;2023-02-13T01:41:07;21.92;;;12.63;;
32637;SDS011;19045;52.268;10.506;2023-02-13T01:43:45;22.92;;;11.93;;
32637;SDS011;19045;52.268;10.506;2023-02-13T01:46:14;24.33;;;12.02;;
32637;SDS011;19045;52.268;10.506;2023-02-13T01:48:44;19.88;;;12.38;;
32637;SDS011;19045;52.268;10.506;2023-02-13T01:51:15;20.02;;;12.20;;
32637;SDS011;19045;52.268;10.506;2023-02-13T01:53:45;23.63;;;13.07;;
32637;SDS011;19045;52.268;10.506;2023-02-13T01:56:16;21.85;;;12.55;;
32637;SDS011;19045;52.268;10.506;2023-02-13T01:58:48;20.67;;;11.65;;
32637;SDS011;19045;52.268;10.506;2023-02-13T02:01:19;24.43;;;13.53;;
32637;SDS011;19045;52.268;10.506;2023-02-13T02:03:50;21.95;;;12.02;;
32637;SDS011;19045;52.268;10.506;2023-02-13T02:06:22;24.02;;;14.20;;
32637;SDS011;19045;52.268;10.506;2023-02-13T02:08:51;25.02;;;14.45;;
32637;SDS011;19045;52.268;10.506;2023-02-13T02:11:22;22.48;;;13.60;;
32637;SDS011;19045;52.268;10.506;2023-02-13T02:13:54;23.33;;;13.60;;
32637;SDS011;19045;52.268;10.506;2023-02-13T02:16:22;21.30;;;13.88;;
32637;SDS011;19045;52.268;10.506;2023-02-13T02:18:52;29.08;;;14.07;;
32637;SDS011;19045;52.268;10.506;2023-02-13T02:27:40;26.65;;;14.07;;
32637;SDS011;19045;52.268;10.506;2023-02-13T02:33:37;22.77;;;14.00;;
32637;SDS011;19045;52.268;10.506;2023-02-13T02:36:19;24.48;;;14.60;;
32637;SDS011;19045;52.268;10.506;2023-02-13T02:38:56;29.42;;;14.10;;
32637;SDS011;19045;52.268;10.506;2023-02-13T02:41:30;26.00;;;14.98;;
32637;SDS011;19045;52.268;10.506;2023-02-13T02:44:08;27.15;;;15.35;;
32637;SDS011;19045;52.268;10.506;2023-02-13T02:46:43;24.05;;;13.98;;
32637;SDS011;19045;52.268;10.506;2023-02-13T02:49:41;24.95;;;14.05;;
32637;SDS011;19045;52.268;10.506;2023-02-13T02:52:25;27.20;;;15.18;;
32637;SDS011;19045;52.268;10.506;2023-02-13T02:55:03;26.45;;;15.30;;
32637;SDS011;19045;52.268;10.506;2023-02-13T02:57:37;24.02;;;14.07;;
32637;SDS011;19045;52.268;10.506;2023-02-13T03:00:25;23.92;;;13.55;;
32637;SDS011;19045;52.268;10.506;2023-02-13T03:03:13;22.23;;;13.68;;
32637;SDS011;19045;52.268;10.506;2023-02-13T03:06:01;28.10;;;14.82;;
32637;SDS011;19045;52.268;10.506;2023-02-13T03:08:38;23.45;;;12.75;;
32637;SDS011;19045;52.268;10.506;2023-02-13T03:11:24;23.92;;;12.90;;
32637;SDS011;19045;52.268;10.506;2023-02-13T03:14:09;23.13;;;12.90;;
32637;SDS011;19045;52.268;10.506;2023-02-13T03:16:39;22.30;;;12.68;;
32637;SDS011;19045;52.268;10.506;2023-02-13T03:19:30;22.60;;;12.80;;
32637;SDS011;19045;52.268;10.506;2023-02-13T03:22:29;24.83;;;12.57;;
32637;SDS011;19045;52.268;10.506;2023-02-13T03:25:04;23.10;;;13.13;;
32637;SDS011;19045;52.268;10.506;2023-02-13T03:27:40;24.42;;;14.02;;
32637;SDS011;19045;52.268;10.506;2023-02-13T03:30:35;22.13;;;12.88;;
32637;SDS011;19045;52.268;10.506;2023-02-13T03:33:12;20.30;;;12.40;;
32637;SDS011;19045;52.268;10.506;2023-02-13T03:35:49;23.73;;;13.20;;
32637;SDS011;19045;52.268;10.506;2023-02-13T03:39:00;22.05;;;13.05;;
32637;SDS011;19045;52.268;10.506;2023-02-13T03:41:34;23.75;;;12.98;;
32637;SDS011;19045;52.268;10.506;2023-02-13T03:44:07;25.50;;;12.48;;
32637;SDS011;19045;52.268;10.506;2023-02-13T03:46:39;22.80;;;12.98;;
32637;SDS011;19045;52.268;10.506;2023-02-13T03:49:10;21.42;;;12.40;;
32637;SDS011;19045;52.268;10.506;2023-02-13T03:52:01;20.70;;;12.38;;
32637;SDS011;19045;52.268;10.506;2023-02-13T03:54:33;19.35;;;11.80;;
32637;SDS011;19045;52.268;10.506;2023-02-13T03:57:23;19.67;;;11.80;;
32637;SDS011;19045;52.268;10.506;2023-02-13T04:00:10;19.45;;;11.85;;
32637;SDS011;19045;52.268;10.506;2023-02-13T04:02:41;20.88;;;12.05;;
32637;SDS011;19045;52.268;10.506;2023-02-13T04:05:17;19.40;;;11.18;;
32637;SDS011;19045;52.268;10.506;2023-02-13T04:07:47;21.58;;;11.65;;
32637;SDS011;19045;52.268;10.506;2023-02-13T04:10:15;18.70;;;11.10;;
32637;SDS011;19045;52.268;10.506;2023-02-13T04:12:46;22.52;;;11.55;;
32637;SDS011;19045;52.268;10.506;2023-02-13T04:15:19;27.95;;;11.27;;
32637;SDS011;19045;52.268;10.506;2023-02-13T04:17:56;25.50;;;12.35;;
32637;SDS011;19045;52.268;10.506;2023-02-13T04:20:29;20.30;;;12.20;;
32637;SDS011;19045;52.268;10.506;2023-02-13T04:23:02;19.40;;;10.52;;
32637;SDS011;19045;52.268;10.506;2023-02-13T04:25:31;21.45;;;12.43;;
32637;SDS011;19045;52.268;10.506;2023-02-13T04:27:58;22.83;;;12.18;;
32637;SDS011;19045;52.268;10.506;2023-02-13T04:30:25;22.17;;;12.30;;
32637;SDS011;19045;52.268;10.506;2023-02-13T04:32:52;22.08;;;12.55;;
32637;SDS011;19045;52.268;10.506;2023-02-13T04:35:18;24.73;;;12.93;;
32637;SDS011;19045;52.268;10.506;2023-02-13T04:37:45;21.83;;;11.77;;
32637;SDS011;19045;52.268;10.506;2023-02-13T04:40:11;23.60;;;13.02;;
32637;SDS011;19045;52.268;10.506;2023-02-13T04:42:40;22.13;;;13.40;;
32637;SDS011;19045;52.268;10.506;2023-02-13T04:45:07;24.15;;;12.52;;
32637;SDS011;19045;52.268;10.506;2023-02-13T04:47:34;23.42;;;12.45;;
32637;SDS011;19045;52.268;10.506;2023-02-13T04:50:01;24.13;;;13.32;;
32637;SDS011;19045;52.268;10.506;2023-02-13T04:52:27;22.15;;;12.15;;
32637;SDS011;19045;52.268;10.506;2023-02-13T04:54:54;23.38;;;12.27;;
32637;SDS011;19045;52.268;10.506;2023-02-13T04:57:20;21.38;;;12.68;;
32637;SDS011;19045;52.268;10.506;2023-02-13T04:59:48;26.25;;;12.85;;
32637;SDS011;19045;52.268;10.506;2023-02-13T05:02:15;24.05;;;11.93;;
32637;SDS011;19045;52.268;10.506;2023-02-13T05:04:41;20.05;;;11.77;;
32637;SDS011;19045;52.268;10.506;2023-02-13T05:07:08;22.20;;;12.00;;
32637;SDS011;19045;52.268;10.506;2023-02-13T05:09:35;23.67;;;12.13;;
32637;SDS011;19045;52.268;10.506;2023-02-13T05:12:01;24.75;;;12.00;;
32637;SDS011;19045;52.268;10.506;2023-02-13T05:14:28;19.17;;;10.85;;
32637;SDS011;19045;52.268;10.506;2023-02-13T05:16:56;22.88;;;12.43;;
32637;SDS011;19045;52.268;10.506;2023-02-13T05:19:22;19.85;;;10.88;;
32637;SDS011;19045;52.268;10.506;2023-02-13T05:21:49;20.70;;;12.15;;
32637;SDS011;19045;52.268;10.506;2023-02-13T05:24:33;20.48;;;11.15;;
32637;SDS011;19045;52.268;10.506;2023-02-13T05:27:00;20.92;;;12.38;;
32637;SDS011;19045;52.268;10.506;2023-02-13T05:29:26;21.92;;;12.82;;
32637;SDS011;19045;52.268;10.506;2023-02-13T05:31:54;20.40;;;11.38;;
32637;SDS011;19045;52.268;10.506;2023-02-13T05:34:24;24.60;;;12.45;;
32637;SDS011;19045;52.268;10.506;2023-02-13T05:36:52;26.27;;;12.20;;
32637;SDS011;19045;52.268;10.506;2023-02-13T05:39:19;22.70;;;11.85;;
32637;SDS011;19045;52.268;10.506;2023-02-13T05:41:46;21.80;;;12.63;;
32637;SDS011;19045;52.268;10.506;2023-02-13T05:44:14;22.48;;;12.73;;
32637;SDS011;19045;52.268;10.506;2023-02-13T05:46:41;21.25;;;11.18;;
32637;SDS011;19045;52.268;10.506;2023-02-13T05:49:10;22.35;;;11.25;;
32637;SDS011;19045;52.268;10.506;2023-02-13T05:51:38;18.58;;;10.10;;
32637;SDS011;19045;52.268;10.506;2023-02-13T05:54:05;23.25;;;10.38;;
32637;SDS011;19045;52.268;10.506;2023-02-13T05:56:31;21.48;;;10.98;;
32637;SDS011;19045;52.268;10.506;2023-02-13T05:58:58;16.98;;;10.27;;
32637;SDS011;19045;52.268;10.506;2023-02-13T06:01:25;20.08;;;11.48;;
32637;SDS011;19045;52.268;10.506;2023-02-13T06:03:51;20.80;;;10.25;;
32637;SDS011;19045;52.268;10.506;2023-02-13T06:06:19;19.75;;;10.93;;
32637;SDS011;19045;52.268;10.506;2023-02-13T06:08:46;18.77;;;11.05;;
32637;SDS011;19045;52.268;10.506;2023-02-13T06:11:13;21.17;;;11.18;;
32637;SDS011;19045;52.268;10.506;2023-02-13T06:13:40;19.05;;;10.35;;
32637;SDS011;19045;52.268;10.506;2023-02-13T06:16:06;19.02;;;9.93;;
32637;SDS011;19045;52.268;10.506;2023-02-13T06:18:33;20.48;;;10.30;;
32637;SDS011;19045;52.268;10.506;2023-02-13T06:21:00;19.92;;;10.68;;
32637;SDS011;19045;52.268;10.506;2023-02-13T06:23:37;20.45;;;10.23;;
32637;SDS011;19045;52.268;10.506;2023-02-13T06:26:04;18.58;;;9.80;;
32637;SDS011;19045;52.268;10.506;2023-02-13T06:28:33;17.83;;;9.88;;
32637;SDS011;19045;52.268;10.506;2023-02-13T06:31:00;22.33;;;10.02;;
32637;SDS011;19045;52.268;10.506;2023-02-13T06:33:26;21.98;;;10.02;;
32637;SDS011;19045;52.268;10.506;2023-02-13T06:35:53;19.73;;;10.93;;
32637;SDS011;19045;52.268;10.506;2023-02-13T06:38:20;23.55;;;10.57;;
32637;SDS011;19045;52.268;10.506;2023-02-13T06:40:48;20.38;;;10.32;;
32637;SDS011;19045;52.268;10.506;2023-02-13T06:43:15;19.23;;;10.63;;
32637;SDS011;19045;52.268;10.506;2023-02-13T06:45:43;24.80;;;10.88;;
32637;SDS011;19045;52.268;10.506;2023-02-13T06:48:11;19.35;;;10.52;;
32637;SDS011;19045;52.268;10.506;2023-02-13T06:50:37;22.38;;;10.65;;
32637;SDS011;19045;52.268;10.506;2023-02-13T06:53:04;24.58;;;11.00;;
32637;SDS011;19045;52.268;10.506;2023-02-13T06:55:30;18.88;;;10.82;;
32637;SDS011;19045;52.268;10.506;2023-02-13T06:57:58;21.52;;;10.52;;
32637;SDS011;19045;52.268;10.506;2023-02-13T07:00:25;21.02;;;11.52;;
32637;SDS011;19045;52.268;10.506;2023-02-13T07:02:52;20.55;;;10.68;;
32637;SDS011;19045;52.268;10.506;2023-02-13T07:05:19;20.27;;;10.50;;
32637;SDS011;19045;52.268;10.506;2023-02-13T07:07:45;19.83;;;11.20;;
32637;SDS011;19045;52.268;10.506;2023-02-13T07:10:12;17.73;;;9.85;;
32637;SDS011;19045;52.268;10.506;2023-02-13T07:12:39;15.88;;;9.32;;
32637;SDS011;19045;52.268;10.506;2023-02-13T07:15:08;16.23;;;9.23;;
32637;SDS011;19045;52.268;10.506;2023-02-13T07:17:35;23.15;;;10.90;;
32637;SDS011;19045;52.268;10.506;2023-02-13T07:20:02;23.10;;;10.07;;
32637;SDS011;19045;52.268;10.506;2023-02-13T07:22:29;15.18;;;9.02;;
32637;SDS011;19045;52.268;10.506;2023-02-13T07:24:56;17.45;;;9.50;;
32637;SDS011;19045;52.268;10.506;2023-02-13T07:27:24;14.93;;;8.75;;
32637;SDS011;19045;52.268;10.506;2023-02-13T07:29:53;16.40;;;9.82;;
32637;SDS011;19045;52.268;10.506;2023-02-13T07:32:21;16.02;;;9.05;;
32637;SDS011;19045;52.268;10.506;2023-02-13T07:34:48;15.32;;;8.88;;
32637;SDS011;19045;52.268;10.506;2023-02-13T07:37:14;18.58;;;8.82;;
32637;SDS011;19045;52.268;10.506;2023-02-13T07:39:41;17.35;;;9.18;;
32637;SDS011;19045;52.268;10.506;2023-02-13T07:42:07;17.52;;;8.82;;
32637;SDS011;19045;52.268;10.506;2023-02-13T07:44:34;18.77;;;9.05;;
32637;SDS011;19045;52.268;10.506;2023-02-13T07:47:00;15.93;;;8.52;;
32637;SDS011;19045;52.268;10.506;2023-02-13T07:49:29;16.35;;;8.38;;
32637;SDS011;19045;52.268;10.506;2023-02-13T07:51:56;16.65;;;8.27;;
32637;SDS011;19045;52.268;10.506;2023-02-13T07:54:23;13.07;;;7.38;;
32637;SDS011;19045;52.268;10.506;2023-02-13T07:56:50;15.48;;;8.02;;
32637;SDS011;19045;52.268;10.506;2023-02-13T07:59:16;16.58;;;8.70;;
32637;SDS011;19045;52.268;10.506;2023-02-13T08:01:43;12.60;;;7.88;;
32637;SDS011;19045;52.268;10.506;2023-02-13T08:04:09;13.80;;;7.93;;
32637;SDS011;19045;52.268;10.506;2023-02-13T08:06:41;19.65;;;8.65;;
32637;SDS011;19045;52.268;10.506;2023-02-13T08:09:07;16.90;;;7.70;;
32637;SDS011;19045;52.268;10.506;2023-02-13T08:12:01;14.75;;;8.40;;
32637;SDS011;19045;52.268;10.506;2023-02-13T08:14:29;13.15;;;8.38;;
32637;SDS011;19045;52.268;10.506;2023-02-13T08:16:57;13.75;;;8.27;;
32637;SDS011;19045;52.268;10.506;2023-02-13T08:19:25;15.43;;;8.13;;
32637;SDS011;19045;52.268;10.506;2023-02-13T08:21:53;14.68;;;8.25;;
32637;SDS011;19045;52.268;10.506;2023-02-13T08:24:19;18.63;;;9.05;;
32637;SDS011;19045;52.268;10.506;2023-02-13T08:26:54;14.32;;;8.73;;
32637;SDS011;19045;52.268;10.506;2023-02-13T08:29:21;13.05;;;8.27;;
32637;SDS011;19045;52.268;10.506;2023-02-13T08:31:48;14.00;;;7.50;;
32637;SDS011;19045;52.268;10.506;2023-02-13T08:34:14;15.60;;;8.63;;
32637;SDS011;19045;52.268;10.506;2023-02-13T08:36:41;14.45;;;7.88;;
32637;SDS011;19045;52.268;10.506;2023-02-13T08:39:09;14.23;;;8.30;;
32637;SDS011;19045;52.268;10.506;2023-02-13T08:41:35;15.45;;;8.80;;
32637;SDS011;19045;52.268;10.506;2023-02-13T08:44:02;15.05;;;8.73;;
32637;SDS011;19045;52.268;10.506;2023-02-13T08:46:29;14.40;;;8.55;;
32637;SDS011;19045;52.268;10.506;2023-02-13T08:48:56;15.30;;;8.63;;
32637;SDS011;19045;52.268;10.506;2023-02-13T08:51:22;16.77;;;9.57;;
32637;SDS011;19045;52.268;10.506;2023-02-13T08:53:49;19.25;;;10.32;;
32637;SDS011;19045;52.268;10.506;2023-02-13T08:56:17;18.27;;;10.90;;
32637;SDS011;19045;52.268;10.506;2023-02-13T08:58:46;16.90;;;9.75;;
32637;SDS011;19045;52.268;10.506;2023-02-13T09:01:13;19.17;;;10.63;;
32637;SDS011;19045;52.268;10.506;2023-02-13T09:03:40;16.70;;;9.40;;
32637;SDS011;19045;52.268;10.506;2023-02-13T09:06:07;14.07;;;8.75;;
32637;SDS011;19045;52.268;10.506;2023-02-13T09:08:33;13.57;;;8.40;;
32637;SDS011;19045;52.268;10.506;2023-02-13T09:11:01;13.32;;;8.00;;
32637;SDS011;19045;52.268;10.506;2023-02-13T09:13:32;10.55;;;6.93;;
32637;SDS011;19045;52.268;10.506;2023-02-13T09:16:01;10.48;;;6.22;;
32637;SDS011;19045;52.268;10.506;2023-02-13T09:18:29;11.27;;;7.10;;
32637;SDS011;19045;52.268;10.506;2023-02-13T09:20:56;10.68;;;6.22;;
32637;SDS011;19045;52.268;10.506;2023-02-13T09:23:24;10.95;;;6.90;;
32637;SDS011;19045;52.268;10.506;2023-02-13T09:25:51;9.82;;;6.75;;
32637;SDS011;19045;52.268;10.506;2023-02-13T09:28:18;7.82;;;5.72;;
32637;SDS011;19045;52.268;10.506;2023-02-13T09:30:46;8.75;;;5.28;;
32637;SDS011;19045;52.268;10.506;2023-02-13T09:33:13;7.47;;;4.97;;
32637;SDS011;19045;52.268;10.506;2023-02-13T09:35:40;8.38;;;5.63;;
32637;SDS011;19045;52.268;10.506;2023-02-13T09:38:09;7.45;;;5.18;;
32637;SDS011;19045;52.268;10.506;2023-02-13T09:40:37;8.43;;;4.88;;
32637;SDS011;19045;52.268;10.506;2023-02-13T09:43:12;8.77;;;5.60;;
32637;SDS011;19045;52.268;10.506;2023-02-13T09:48:16;6.32;;;4.68;;
32637;SDS011;19045;52.268;10.506;2023-02-13T09:50:50;6.43;;;4.68;;
32637;SDS011;19045;52.268;10.506;2023-02-13T09:53:19;6.63;;;4.43;;
32637;SDS011;19045;52.268;10.506;2023-02-13T09:55:48;6.93;;;4.25;;
32637;SDS011;19045;52.268;10.506;2023-02-13T09:58:27;5.88;;;4.03;;
32637;SDS011;19045;52.268;10.506;2023-02-13T10:01:00;7.72;;;3.88;;
32637;SDS011;19045;52.268;10.506;2023-02-13T10:03:31;5.00;;;4.00;;
32637;SDS011;19045;52.268;10.506;2023-02-13T10:06:04;4.22;;;3.58;;
32637;SDS011;19045;52.268;10.506;2023-02-13T10:08:40;5.18;;;3.20;;
32637;SDS011;19045;52.268;10.506;2023-02-13T10:11:21;3.78;;;2.95;;
32637;SDS011;19045;52.268;10.506;2023-02-13T10:14:08;5.32;;;2.95;;
32637;SDS011;19045;52.268;10.506;2023-02-13T10:16:41;3.65;;;2.95;;
32637;SDS011;19045;52.268;10.506;2023-02-13T10:19:14;5.60;;;3.55;;
32637;SDS011;19045;52.268;10.506;2023-02-13T10:21:50;2.90;;;2.22;;
32637;SDS011;19045;52.268;10.506;2023-02-13T10:24:22;4.50;;;2.58;;
32637;SDS011;19045;52.268;10.506;2023-02-13T10:26:56;3.22;;;2.50;;
32637;SDS011;19045;52.268;10.506;2023-02-13T10:29:29;3.30;;;2.45;;
32637;SDS011;19045;52.268;10.506;2023-02-13T10:32:21;2.53;;;2.00;;
32637;SDS011;19045;52.268;10.506;2023-02-13T10:34:57;3.67;;;2.45;;
32637;SDS011;19045;52.268;10.506;2023-02-13T10:37:27;2.53;;;1.95;;
32637;SDS011;19045;52.268;10.506;2023-02-13T10:39:55;2.55;;;2.00;;
32637;SDS011;19045;52.268;10.506;2023-02-13T10:42:22;2.95;;;1.90;;
32637;SDS011;19045;52.268;10.506;2023-02-13T10:45:02;2.92;;;1.55;;
32637;SDS011;19045;52.268;10.506;2023-02-13T10:47:47;5.18;;;2.25;;
32637;SDS011;19045;52.268;10.506;2023-02-13T10:50:27;3.67;;;1.70;;
32637;SDS011;19045;52.268;10.506;2023-02-13T10:53:03;3.08;;;2.05;;
32637;SDS011;19045;52.268;10.506;2023-02-13T10:58:36;2.22;;;1.75;;
32637;SDS011;19045;52.268;10.506;2023-02-13T11:01:13;2.53;;;1.80;;
32637;SDS011;19045;52.268;10.506;2023-02-13T11:03:44;2.95;;;1.95;;
32637;SDS011;19045;52.268;10.506;2023-02-13T11:06:13;3.90;;;1.50;;
32637;SDS011;19045;52.268;10.506;2023-02-13T11:11:30;2.20;;;1.67;;
32637;SDS011;19045;52.268;10.506;2023-02-13T11:14:07;3.55;;;1.70;;
32637;SDS011;19045;52.268;10.506;2023-02-13T11:16:40;1.92;;;1.60;;
32637;SDS011;19045;52.268;10.506;2023-02-13T11:19:17;1.90;;;1.35;;
32637;SDS011;19045;52.268;10.506;2023-02-13T11:21:49;3.80;;;1.63;;
32637;SDS011;19045;52.268;10.506;2023-02-13T11:24:21;1.95;;;1.52;;
32637;SDS011;19045;52.268;10.506;2023-02-13T11:26:50;2.50;;;1.75;;
32637;SDS011;19045;52.268;10.506;2023-02-13T11:29:21;2.88;;;1.40;;
32637;SDS011;19045;52.268;10.506;2023-02-13T11:34:44;1.48;;;1.20;;
32637;SDS011;19045;52.268;10.506;2023-02-13T11:37:16;1.52;;;1.40;;
32637;SDS011;19045;52.268;10.506;2023-02-13T11:39:51;2.20;;;1.30;;
32637;SDS011;19045;52.268;10.506;2023-02-13T11:42:20;2.60;;;1.48;;
32637;SDS011;19045;52.268;10.506;2023-02-13T11:44:52;3.25;;;1.23;;
32637;SDS011;19045;52.268;10.506;2023-02-13T11:47:33;2.72;;;1.77;;
32637;SDS011;19045;52.268;10.506;2023-02-13T11:50:02;2.95;;;1.60;;
32637;SDS011;19045;52.268;10.506;2023-02-13T11:52:33;2.58;;;1.67;;
32637;SDS011;19045;52.268;10.506;2023-02-13T11:55:02;3.42;;;1.85;;
32637;SDS011;19045;52.268;10.506;2023-02-13T11:57:31;3.38;;;1.60;;
32637;SDS011;19045;52.268;10.506;2023-02-13T12:00:00;3.55;;;1.48;;
32637;SDS011;19045;52.268;10.506;2023-02-13T12:02:52;2.17;;;1.75;;
32637;SDS011;19045;52.268;10.506;2023-02-13T12:05:19;2.10;;;1.63;;
32637;SDS011;19045;52.268;10.506;2023-02-13T12:07:48;2.08;;;1.65;;
32637;SDS011;19045;52.268;10.506;2023-02-13T12:10:17;3.35;;;1.50;;
32637;SDS011;19045;52.268;10.506;2023-02-13T12:12:48;1.92;;;1.73;;
32637;SDS011;19045;52.268;10.506;2023-02-13T12:15:28;2.28;;;1.73;;
32637;SDS011;19045;52.268;10.506;2023-02-13T12:18:04;6.40;;;1.90;;
32637;SDS011;19045;52.268;10.506;2023-02-13T12:20:43;3.55;;;2.20;;
32637;SDS011;19045;52.268;10.506;2023-02-13T12:23:23;2.15;;;1.88;;
32637;SDS011;19045;52.268;10.506;2023-02-13T12:26:02;2.30;;;1.73;;
32637;SDS011;19045;52.268;10.506;2023-02-13T12:28:43;1.98;;;1.52;;
32637;SDS011;19045;52.268;10.506;2023-02-13T12:31:25;2.00;;;1.80;;
32637;SDS011;19045;52.268;10.506;2023-02-13T12:34:28;2.85;;;2.03;;
32637;SDS011;19045;52.268;10.506;2023-02-13T12:42:55;2.92;;;2.00;;
32637;SDS011;19045;52.268;10.506;2023-02-13T12:45:39;7.55;;;2.25;;
32637;SDS011;19045;52.268;10.506;2023-02-13T12:48:20;2.42;;;1.95;;
32637;SDS011;19045;52.268;10.506;2023-02-13T12:50:56;2.63;;;2.15;;
32637;SDS011;19045;52.268;10.506;2023-02-13T12:56:27;3.28;;;2.10;;
32637;SDS011;19045;52.268;10.506;2023-02-13T12:59:06;5.30;;;2.33;;
32637;SDS011;19045;52.268;10.506;2023-02-13T13:01:47;4.60;;;2.38;;
32637;SDS011;19045;52.268;10.506;2023-02-13T13:04:36;3.30;;;2.03;;
32637;SDS011;19045;52.268;10.506;2023-02-13T13:07:17;4.18;;;1.90;;
32637;SDS011;19045;52.268;10.506;2023-02-13T13:12:48;3.22;;;2.08;;
32637;SDS011;19045;52.268;10.506;2023-02-13T13:15:24;3.67;;;2.42;;
32637;SDS011;19045;52.268;10.506;2023-02-13T13:17:59;4.03;;;2.70;;
32637;SDS011;19045;52.268;10.506;2023-02-13T13:20:42;3.13;;;2.23;;
32637;SDS011;19045;52.268;10.506;2023-02-13T13:23:18;3.25;;;2.33;;
32637;SDS011;19045;52.268;10.506;2023-02-13T13:25:51;5.28;;;2.63;;
32637;SDS011;19045;52.268;10.506;2023-02-13T13:28:25;3.42;;;2.95;;
32637;SDS011;19045;52.268;10.506;2023-02-13T13:30:57;5.10;;;2.78;;
32637;SDS011;19045;52.268;10.506;2023-02-13T13:33:25;3.63;;;2.70;;
32637;SDS011;19045;52.268;10.506;2023-02-13T13:35:54;2.72;;;2.38;;
32637;SDS011;19045;52.268;10.506;2023-02-13T13:38:29;3.63;;;2.88;;
32637;SDS011;19045;52.268;10.506;2023-02-13T13:41:04;5.18;;;3.20;;
32637;SDS011;19045;52.268;10.506;2023-02-13T13:43:39;6.78;;;3.50;;
32637;SDS011;19045;52.268;10.506;2023-02-13T13:46:20;3.72;;;3.25;;
32637;SDS011;19045;52.268;10.506;2023-02-13T13:48:59;4.32;;;3.35;;
32637;SDS011;19045;52.268;10.506;2023-02-13T13:51:37;5.07;;;3.50;;
32637;SDS011;19045;52.268;10.506;2023-02-13T13:54:16;7.18;;;3.28;;
32637;SDS011;19045;52.268;10.506;2023-02-13T14:03:11;5.07;;;3.65;;
32637;SDS011;19045;52.268;10.506;2023-02-13T14:06:02;6.18;;;3.75;;
32637;SDS011;19045;52.268;10.506;2023-02-13T14:11:37;5.55;;;4.35;;
32637;SDS011;19045;52.268;10.506;2023-02-13T14:17:16;5.22;;;3.88;;
32637;SDS011;19045;52.268;10.506;2023-02-13T14:20:42;5.33;;;4.33;;
32637;SDS011;19045;52.268;10.506;2023-02-13T14:23:18;4.82;;;4.07;;
32637;SDS011;19045;52.268;10.506;2023-02-13T14:31:57;6.28;;;4.63;;
32637;SDS011;19045;52.268;10.506;2023-02-13T14:34:28;5.38;;;4.05;;
32637;SDS011;19045;52.268;10.506;2023-02-13T14:37:04;5.00;;;4.30;;
32637;SDS011;19045;52.268;10.506;2023-02-13T14:40:10;7.25;;;5.00;;
32637;SDS011;19045;52.268;10.506;2023-02-13T14:43:05;8.02;;;4.78;;
32637;SDS011;19045;52.268;10.506;2023-02-13T14:45:46;11.80;;;4.47;;
32637;SDS011;19045;52.268;10.506;2023-02-13T14:48:18;8.23;;;5.82;;
32637;SDS011;19045;52.268;10.506;2023-02-13T14:50:48;7.00;;;5.00;;
32637;SDS011;19045;52.268;10.506;2023-02-13T14:53:20;6.85;;;4.85;;
32637;SDS011;19045;52.268;10.506;2023-02-13T14:55:53;5.60;;;4.32;;
32637;SDS011;19045;52.268;10.506;2023-02-13T14:58:25;6.60;;;4.53;;
32637;SDS011;19045;52.268;10.506;2023-02-13T15:00:56;5.82;;;4.22;;
32637;SDS011;19045;52.268;10.506;2023-02-13T15:03:28;6.95;;;5.03;;
32637;SDS011;19045;52.268;10.506;2023-02-13T15:06:02;8.00;;;5.50;;
32637;SDS011;19045;52.268;10.506;2023-02-13T15:08:32;8.13;;;5.53;;
32637;SDS011;19045;52.268;10.506;2023-02-13T15:11:02;7.82;;;5.75;;
32637;SDS011;19045;52.268;10.506;2023-02-13T15:13:31;7.00;;;5.10;;
32637;SDS011;19045;52.268;10.506;2023-02-13T15:16:00;8.05;;;5.93;;
32637;SDS011;19045;52.268;10.506;2023-02-13T15:18:32;11.93;;;6.40;;
32637;SDS011;19045;52.268;10.506;2023-02-13T15:21:02;10.45;;;6.80;;
32637;SDS011;19045;52.268;10.506;2023-02-13T15:23:31;12.25;;;7.05;;
32637;SDS011;19045;52.268;10.506;2023-02-13T15:25:59;10.30;;;7.60;;
32637;SDS011;19045;52.268;10.506;2023-02-13T15:28:28;11.57;;;7.65;;
32637;SDS011;19045;52.268;10.506;2023-02-13T15:30:55;10.25;;;6.95;;
32637;SDS011;19045;52.268;10.506;2023-02-13T15:33:25;12.55;;;9.20;;
32637;SDS011;19045;52.268;10.506;2023-02-13T15:35:54;11.75;;;8.77;;